Time;durP1;ratioP1;P1;durP2;ratioP2;P2;SDS_P1;SDS_P2;PMS_P1;PMS_P2;Temp;Humidity;BMP_temperature;BMP_pressure;BME280_temperature;BME280_humidity;BME280_pressure;Samples;Min_cycle;Max_cycle;Signal;HPM_P1;HPM_P2
2021/03/14 00:01:02;;;;;;;2.13;0.90;;;11.30;93.80;;;12.00;49.57;99757.91;4920905;28;97460;-56
2021/03/14 00:03:30;;;;;;;2.93;1.20;;;11.40;95.20;;;12.05;48.63;99771.75;4927684;28;96997;-55
2021/03/14 00:05:58;;;;;;;3.47;1.27;;;11.60;94.10;;;12.18;49.20;99767.47;4937153;28;98291;-53
2021/03/14 00:08:28;;;;;;;5.53;1.37;;;11.70;94.60;;;12.45;45.18;99764.22;4923702;28;97427;-54
2021/03/14 00:11:01;;;;;;;3.47;1.60;;;12.30;92.20;;;12.23;47.56;99763.72;4920453;28;99879;-52
2021/03/14 00:13:34;;;;;;;4.13;1.20;;;11.90;92.60;;;12.86;47.52;99768.84;4929064;28;98866;-56
2021/03/14 00:16:02;;;;;;;3.10;1.30;;;12.50;93.40;;;12.99;44.07;99781.28;4925338;28;100353;-54
2021/03/14 00:18:39;;;;;;;3.27;1.27;;;12.80;91.30;;;13.04;46.45;99794.25;4919336;28;97561;-54
2021/03/14 00:21:06;;;;;;;3.67;1.60;;;12.80;90.90;;;13.02;46.62;99801.44;4919632;28;100517;-53
2021/03/14 00:23:32;;;;;;;4.30;1.60;;;12.80;91.60;;;13.18;44.84;99796.97;4936326;28;98760;-54
2021/03/14 00:26:00;;;;;;;7.87;2.30;;;13.00;90.00;;;12.69;44.56;99810.38;4916583;28;98507;-55
2021/03/14 00:28:26;;;;;;;3.23;1.40;;;12.50;90.60;;;12.79;44.22;99806.28;4940582;28;98061;-54
2021/03/14 00:30:53;;;;;;;2.73;1.20;;;12.50;91.00;;;12.58;47.79;99819.88;4938766;28;101801;-53
2021/03/14 00:33:19;;;;;;;6.87;2.10;;;12.20;92.40;;;12.48;45.08;99816.91;4925054;28;98776;-52
2021/03/14 00:35:45;;;;;;;4.47;1.90;;;12.20;91.30;;;12.45;47.15;99822.38;4923174;28;99944;-55
2021/03/14 00:38:11;;;;;;;5.67;2.00;;;12.00;93.30;;;12.73;47.51;99827.81;4938639;28;104208;-56
2021/03/14 00:40:39;;;;;;;5.37;2.03;;;12.30;93.00;;;13.04;46.80;99832.19;4934012;28;98830;-56
2021/03/14 00:43:06;;;;;;;3.67;1.30;;;12.80;91.70;;;13.43;46.41;99832.56;4930352;28;99321;-53
2021/03/14 00:45:35;;;;;;;4.13;1.63;;;13.20;92.00;;;13.47;45.75;99842.06;4923075;28;100544;-54
2021/03/14 00:48:04;;;;;;;3.40;1.70;;;13.30;91.30;;;13.58;44.80;99847.53;4941908;28;98806;-55
2021/03/14 00:50:39;;;;;;;4.90;1.93;;;13.50;88.50;;;13.68;45.32;99848.69;4923683;28;99782;-56
2021/03/14 00:53:05;;;;;;;6.17;2.60;;;13.50;90.80;;;13.61;45.80;99853.50;4930912;28;100617;-56
2021/03/14 00:55:32;;;;;;;4.63;1.97;;;13.40;90.90;;;13.78;45.14;99859.56;4942932;28;99762;-55
2021/03/14 00:57:58;;;;;;;7.20;2.73;;;13.60;91.00;;;13.56;42.56;99866.16;4919195;28;100376;-53
2021/03/14 01:00:25;;;;;;;6.43;2.40;;;13.60;87.20;;;13.84;44.80;99862.69;4937326;28;99909;-53
2021/03/14 01:02:51;;;;;;;7.83;2.03;;;13.60;90.10;;;13.83;44.88;99866.28;4930687;28;98895;-53
2021/03/14 01:05:17;;;;;;;5.70;2.23;;;13.60;90.50;;;13.97;43.14;99871.59;4929453;28;98784;-53
2021/03/14 01:07:43;;;;;;;4.90;2.30;;;13.90;88.00;;;14.09;44.62;99874.44;4930482;28;98669;-55
2021/03/14 01:10:12;;;;;;;4.63;1.90;;;13.90;89.90;;;14.20;44.26;99877.28;4937321;28;98054;-55
2021/03/14 01:12:41;;;;;;;8.43;2.50;;;14.10;89.50;;;13.98;43.77;99881.25;4914728;28;98018;-55
2021/03/14 01:15:11;;;;;;;6.90;2.30;;;13.80;88.00;;;14.16;43.06;99883.69;4938895;28;99045;-58
2021/03/14 01:17:38;;;;;;;7.47;2.50;;;14.00;86.90;;;13.98;43.50;99886.56;4920947;28;105074;-55
2021/03/14 01:20:14;;;;;;;5.77;2.10;;;13.90;87.90;;;13.72;44.92;99889.09;4942992;28;98889;-54
2021/03/14 01:22:40;;;;;;;4.90;2.30;;;13.40;89.40;;;13.58;45.51;99892.56;4914219;28;98370;-52
2021/03/14 01:25:09;;;;;;;8.27;2.60;;;13.20;90.80;;;13.51;43.89;99889.44;4929394;28;98435;-53
2021/03/14 01:27:35;;;;;;;4.77;2.20;;;13.20;89.90;;;13.83;45.21;99890.16;4929323;28;102256;-53
2021/03/14 01:30:04;;;;;;;5.87;2.47;;;13.50;90.90;;;13.68;42.35;99899.88;4940911;28;99225;-55
2021/03/14 01:32:30;;;;;;;7.63;2.30;;;13.60;88.70;;;13.66;43.60;99904.44;4913935;28;101254;-54
2021/03/14 01:34:56;;;;;;;4.30;1.50;;;13.50;86.60;;;13.73;44.59;99899.59;4925342;28;98455;-54
2021/03/14 01:37:23;;;;;;;4.73;2.20;;;13.50;90.40;;;13.29;44.06;99908.38;4926113;28;115792;-55
2021/03/14 01:39:49;;;;;;;4.47;1.80;;;13.20;88.20;;;13.43;43.94;99912.03;4932416;28;98944;-55
2021/03/14 01:42:28;;;;;;;6.20;1.87;;;13.30;89.80;;;13.57;45.31;99904.97;4925218;28;97999;-53
2021/03/14 01:44:54;;;;;;;3.60;1.20;;;13.40;90.30;;;13.61;45.19;99910.97;4931893;28;98961;-53
2021/03/14 01:47:39;;;;;;;5.83;2.03;;;13.50;89.60;;;13.54;42.83;99914.91;4926803;28;98227;-54
2021/03/14 01:50:13;;;;;;;6.30;1.70;;;13.60;87.10;;;13.57;43.56;99914.72;4934140;28;97339;-55
2021/03/14 01:52:39;;;;;;;6.23;1.90;;;13.60;86.20;;;13.67;42.69;99918.53;4938934;28;99773;-55
2021/03/14 01:55:08;;;;;;;5.47;1.97;;;13.70;87.40;;;13.48;43.22;99915.28;4923834;28;100677;-54
2021/03/14 01:57:35;;;;;;;3.73;1.30;;;13.60;85.10;;;13.76;42.75;99919.78;4922915;28;103291;-54
2021/03/14 02:00:10;;;;;;;3.00;1.37;;;13.80;87.10;;;13.69;42.57;99925.44;4918937;28;98312;-51
2021/03/14 02:02:37;;;;;;;4.70;2.23;;;13.70;86.60;;;13.58;44.81;99911.13;4937079;28;97318;-55
2021/03/14 02:05:06;;;;;;;4.57;1.20;;;13.50;88.60;;;13.61;44.59;99926.84;4919259;28;99076;-54
2021/03/14 02:07:33;;;;;;;4.27;1.20;;;13.60;89.20;;;13.88;44.17;99929.63;4920974;28;103413;-54
2021/03/14 02:09:59;;;;;;;2.70;0.97;;;13.90;89.30;;;13.98;41.51;99939.56;4935793;28;98060;-53
2021/03/14 02:12:27;;;;;;;2.97;1.03;;;14.10;86.10;;;13.92;44.39;99937.31;4916038;28;98449;-55
2021/03/14 02:15:00;;;;;;;3.70;1.20;;;13.90;89.30;;;14.12;44.22;99929.94;4920943;28;105128;-53
2021/03/14 02:17:30;;;;;;;2.77;0.90;;;14.20;88.60;;;14.14;42.32;99943.94;4922243;28;98079;-56
2021/03/14 02:20:17;;;;;;;4.07;1.10;;;14.20;84.50;;;14.25;43.71;99945.00;4921245;28;100917;-54
2021/03/14 02:22:46;;;;;;;3.00;1.10;;;14.30;86.20;;;14.15;43.83;99948.28;4917977;28;97600;-54
2021/03/14 02:25:32;;;;;;;1.93;1.07;;;14.10;88.00;;;14.14;43.85;99947.44;4928821;28;98679;-55
2021/03/14 02:27:58;;;;;;;2.33;0.87;;;14.10;86.50;;;14.18;42.28;99956.09;4914540;28;97177;-55
2021/03/14 02:30:24;;;;;;;1.97;1.10;;;14.20;84.80;;;14.31;43.23;99954.34;4928942;28;99957;-54
2021/03/14 02:32:52;;;;;;;2.70;1.17;;;14.30;86.20;;;14.31;43.08;99959.66;4913210;28;113937;-54
2021/03/14 02:35:18;;;;;;;4.53;1.10;;;14.30;86.10;;;14.31;40.26;99962.31;4930523;28;97001;-55
2021/03/14 02:37:47;;;;;;;3.53;1.00;;;14.50;82.60;;;14.22;42.98;99970.88;4941736;28;100075;-54
2021/03/14 02:40:14;;;;;;;2.27;1.03;;;14.30;84.50;;;14.34;42.26;99964.81;4900664;28;97205;-55
2021/03/14 02:42:42;;;;;;;3.13;1.37;;;14.40;84.80;;;14.27;42.44;99969.63;4923835;28;98971;-55
2021/03/14 02:45:10;;;;;;;3.80;1.57;;;14.30;84.00;;;14.44;43.21;99971.25;4929913;28;99768;-56
2021/03/14 02:47:39;;;;;;;6.13;1.57;;;14.50;86.80;;;14.22;42.91;99976.16;4938349;28;98868;-55
2021/03/14 02:50:24;;;;;;;4.80;1.37;;;14.30;85.20;;;14.25;43.32;99976.81;4928369;28;99908;-55
2021/03/14 02:52:50;;;;;;;2.07;1.23;;;14.20;86.50;;;14.13;43.71;99982.88;4909281;28;98654;-54
2021/03/14 02:55:22;;;;;;;4.97;1.33;;;14.10;86.40;;;14.10;43.27;99983.06;4902645;28;98393;-55
2021/03/14 02:57:50;;;;;;;2.87;1.00;;;14.10;85.90;;;14.19;42.78;99992.28;4931937;28;97192;-54
2021/03/14 03:00:21;;;;;;;3.00;1.20;;;14.20;85.70;;;14.22;43.39;99994.72;4940588;28;98517;-52
2021/03/14 03:02:50;;;;;;;3.73;1.63;;;14.20;88.10;;;14.22;43.45;100000.03;4928488;28;100257;-56
2021/03/14 03:05:18;;;;;;;1.80;1.07;;;14.20;87.10;;;14.18;43.44;100001.19;4919591;28;100340;-55
2021/03/14 03:07:53;;;;;;;3.47;1.20;;;14.20;86.60;;;14.39;42.95;100009.59;4913245;28;102765;-55
2021/03/14 03:10:21;;;;;;;3.43;1.33;;;14.40;86.60;;;14.04;41.65;100019.72;4923532;28;98810;-55
2021/03/14 03:12:48;;;;;;;2.17;1.10;;;14.10;83.30;;;14.21;43.51;100016.91;4929638;28;98434;-55
2021/03/14 03:15:19;;;;;;;2.47;1.00;;;14.20;87.70;;;13.97;43.38;100025.38;4924299;28;101603;-56
2021/03/14 03:17:46;;;;;;;2.13;1.10;;;14.00;85.70;;;14.03;43.77;100017.97;4898279;28;97345;-56
2021/03/14 03:20:13;;;;;;;3.80;1.30;;;14.00;87.30;;;14.17;42.68;100020.66;4916252;28;97660;-56
2021/03/14 03:22:39;;;;;;;2.73;1.00;;;14.20;85.20;;;14.12;41.67;100034.22;4930633;28;99099;-51
2021/03/14 03:25:07;;;;;;;4.30;1.27;;;14.30;83.30;;;14.11;43.49;100031.66;4927948;28;99436;-52
2021/03/14 03:27:37;;;;;;;3.83;1.40;;;14.10;86.40;;;14.11;40.86;100031.66;4934901;28;107450;-53
2021/03/14 03:30:07;;;;;;;2.87;0.93;;;14.20;83.50;;;14.04;43.66;100036.47;4925000;28;98416;-56
2021/03/14 03:32:33;;;;;;;4.97;1.30;;;14.00;86.00;;;13.90;41.70;100037.31;4929052;28;98500;-56
2021/03/14 03:34:59;;;;;;;5.93;1.50;;;13.90;83.70;;;13.86;41.63;100046.34;4941236;28;98454;-55
2021/03/14 03:37:25;;;;;;;3.53;1.30;;;13.90;82.90;;;13.93;42.95;100050.38;4912200;28;110284;-56
2021/03/14 03:39:51;;;;;;;3.73;1.17;;;13.90;85.50;;;13.92;43.08;100042.50;4938423;28;97331;-54
2021/03/14 03:42:30;;;;;;;4.43;1.40;;;13.90;85.90;;;14.01;44.15;100057.84;4920364;28;100026;-53
2021/03/14 03:44:57;;;;;;;4.67;1.27;;;13.90;88.20;;;14.08;44.21;100053.06;4932330;28;99009;-53
2021/03/14 03:47:25;;;;;;;2.27;1.23;;;14.00;87.90;;;14.10;41.91;100059.13;4939135;28;99520;-54
2021/03/14 03:49:54;;;;;;;4.13;1.70;;;14.20;85.20;;;14.17;43.23;100073.69;4938421;28;98280;-55
2021/03/14 03:52:21;;;;;;;6.37;1.77;;;14.20;85.40;;;13.96;40.58;100071.38;4939853;28;98678;-54
2021/03/14 03:54:50;;;;;;;4.07;1.83;;;14.10;82.40;;;14.21;43.39;100065.50;4919848;28;109410;-51
2021/03/14 03:57:17;;;;;;;4.00;1.50;;;14.20;87.20;;;14.13;42.40;100077.50;4923026;28;99399;-53
2021/03/14 03:59:44;;;;;;;4.77;1.57;;;14.20;84.50;;;14.07;41.13;100080.53;4917485;28;107382;-56
2021/03/14 04:02:11;;;;;;;5.97;1.60;;;14.10;85.30;;;13.97;44.13;100089.00;4926790;28;97468;-53
2021/03/14 04:04:40;;;;;;;2.67;1.37;;;13.90;87.80;;;14.15;43.58;100092.38;4920569;28;98642;-50
2021/03/14 04:07:10;;;;;;;4.47;1.50;;;14.10;87.70;;;13.85;41.68;100105.63;4944109;28;97236;-55
2021/03/14 04:09:36;;;;;;;3.93;1.50;;;13.90;83.40;;;14.08;43.32;100098.13;4936277;28;100156;-55
2021/03/14 04:12:04;;;;;;;7.07;2.23;;;14.10;86.70;;;13.76;40.75;100111.47;4945802;28;97695;-56
2021/03/14 04:14:31;;;;;;;4.57;1.70;;;13.90;82.40;;;13.90;43.93;100119.47;4916996;28;97791;-56
2021/03/14 04:16:58;;;;;;;4.37;2.03;;;13.80;87.00;;;13.70;42.64;100114.44;4932057;28;102552;-56
2021/03/14 04:19:28;;;;;;;5.40;1.60;;;13.60;84.50;;;13.88;44.33;100120.50;4937599;28;97502;-56
2021/03/14 04:21:55;;;;;;;4.43;1.87;;;13.70;88.80;;;14.08;43.63;100111.41;4935272;28;96954;-55
2021/03/14 04:24:23;;;;;;;4.20;2.13;;;14.00;88.00;;;13.99;41.11;100124.22;4931716;28;101876;-54
2021/03/14 04:26:50;;;;;;;5.03;2.27;;;14.10;83.20;;;14.24;43.61;100122.81;4925524;28;99184;-55
2021/03/14 04:29:17;;;;;;;7.53;2.30;;;14.30;87.10;;;14.22;43.53;100124.69;4924754;28;96852;-55
2021/03/14 04:31:47;;;;;;;5.50;1.90;;;14.20;86.70;;;14.15;41.36;100134.81;4932825;28;98277;-56
2021/03/14 04:34:16;;;;;;;5.57;1.83;;;14.40;83.00;;;14.37;42.11;100133.56;4942619;28;99133;-54
2021/03/14 04:36:45;;;;;;;3.90;2.20;;;14.50;84.40;;;13.97;41.06;100142.03;4917243;28;100104;-55
2021/03/14 04:39:11;;;;;;;6.90;2.10;;;14.20;81.60;;;13.63;42.13;100152.88;4924700;28;97275;-56
2021/03/14 04:41:38;;;;;;;9.60;2.80;;;13.70;83.40;;;13.51;41.40;100142.94;4930910;28;98394;-54
2021/03/14 04:44:06;;;;;;;6.90;2.03;;;13.60;84.20;;;13.56;44.45;100151.47;4930015;28;98479;-54
2021/03/14 04:46:32;;;;;;;5.60;2.00;;;13.50;88.80;;;13.67;44.49;100154.38;4942369;28;101879;-54
2021/03/14 04:48:59;;;;;;;8.00;3.30;;;13.60;88.60;;;13.77;41.95;100155.59;4954709;28;96778;-51
2021/03/14 04:51:28;;;;;;;3.80;1.80;;;13.90;84.40;;;13.82;43.94;100158.81;4943099;28;97257;-55
2021/03/14 04:53:56;;;;;;;6.47;2.40;;;13.90;86.70;;;13.66;40.74;100165.94;4948520;28;100776;-52
2021/03/14 04:56:25;;;;;;;7.97;2.37;;;13.80;82.90;;;13.62;41.68;100167.91;4942304;28;98394;-54
2021/03/14 04:58:52;;;;;;;5.37;2.40;;;13.60;85.50;;;13.72;42.43;100173.53;4935948;28;97433;-51
2021/03/14 05:01:22;;;;;;;8.13;2.80;;;13.70;85.80;;;13.84;44.19;100180.78;4926509;28;99130;-53
2021/03/14 05:03:52;;;;;;;6.40;2.47;;;13.80;87.50;;;13.99;43.65;100181.72;4968018;28;98160;-56
2021/03/14 05:06:20;;;;;;;9.53;2.77;;;14.00;87.40;;;13.99;43.89;100171.97;4958643;28;101457;-55
2021/03/14 05:08:47;;;;;;;5.93;2.43;;;14.00;86.90;;;13.98;42.62;100180.00;4985632;28;96830;-53
2021/03/14 05:11:21;;;;;;;3.80;1.80;;;14.10;83.70;;;13.62;41.20;100183.81;4958986;28;97619;-51
2021/03/14 05:13:47;;;;;;;5.90;2.43;;;13.60;85.20;;;13.84;44.34;100183.44;4951245;28;99839;-53
2021/03/14 05:16:15;;;;;;;9.03;2.60;;;13.70;87.80;;;13.72;41.49;100193.88;4959585;28;98693;-53
2021/03/14 05:18:45;;;;;;;5.43;2.17;;;13.80;84.10;;;13.71;43.12;100195.66;4952980;28;97519;-55
2021/03/14 05:21:12;;;;;;;6.43;2.57;;;13.70;85.20;;;13.62;44.45;100198.84;4944405;28;96906;-53
2021/03/14 05:23:39;;;;;;;7.27;2.40;;;13.50;88.60;;;13.57;44.33;100206.19;4969450;28;100182;-54
2021/03/14 05:26:11;;;;;;;7.80;2.20;;;13.40;87.10;;;13.59;44.65;100209.59;4949842;28;98906;-54
2021/03/14 05:28:39;;;;;;;7.10;2.10;;;13.40;88.50;;;13.91;43.88;100207.84;4945274;28;98853;-54
2021/03/14 05:31:40;;;;;;;8.07;3.33;;;13.80;87.60;;;13.12;42.38;100210.34;4937751;28;98813;-53
2021/03/14 05:34:14;;;;;;;8.57;2.33;;;13.20;84.00;;;13.35;42.47;100223.25;4948057;28;101728;-54
2021/03/14 05:36:40;;;;;;;10.20;3.13;;;13.10;90.00;;;13.03;44.26;100221.44;4947213;28;103774;-53
2021/03/14 05:39:07;;;;;;;8.33;2.87;;;12.80;87.80;;;13.27;43.98;100225.44;4945161;28;98718;-53
2021/03/14 05:41:36;;;;;;;8.73;2.80;;;13.10;87.60;;;12.98;42.45;100223.47;4950941;28;98487;-52
2021/03/14 05:44:04;;;;;;;8.90;2.77;;;12.90;85.80;;;13.26;44.70;100236.13;4944939;28;97239;-54
2021/03/14 05:46:30;;;;;;;8.50;2.63;;;13.00;87.50;;;13.19;44.13;100238.25;4951797;28;97226;-51
2021/03/14 05:48:56;;;;;;;4.57;2.30;;;13.10;85.40;;;13.25;45.69;100243.22;4941025;28;97333;-56
2021/03/14 05:51:27;;;;;;;6.93;2.90;;;13.00;90.30;;;13.42;43.20;100236.16;4967184;28;98477;-56
2021/03/14 05:53:56;;;;;;;12.87;3.97;;;13.30;87.50;;;13.54;44.80;100238.16;4941541;28;99197;-54
2021/03/14 05:56:22;;;;;;;7.03;2.17;;;13.40;88.60;;;13.61;44.74;100244.84;4948937;28;97611;-55
2021/03/14 05:58:51;;;;;;;8.37;2.73;;;13.50;89.30;;;13.65;43.19;100241.06;4932697;28;96744;-56
2021/03/14 06:01:23;;;;;;;9.97;3.07;;;13.60;85.80;;;13.13;41.68;100251.78;4967716;28;97667;-55
2021/03/14 06:03:50;;;;;;;6.07;2.40;;;13.10;85.00;;;13.36;41.70;100251.47;4944203;28;97563;-55
2021/03/14 06:06:16;;;;;;;7.00;2.37;;;13.30;85.90;;;13.41;45.25;100259.16;4949943;28;97561;-54
2021/03/14 06:08:43;;;;;;;8.03;2.10;;;13.10;90.20;;;13.26;42.77;100260.81;4944754;28;97346;-55
2021/03/14 06:11:13;;;;;;;11.33;3.07;;;13.00;88.30;;;13.36;42.22;100269.16;4963040;28;97125;-53
2021/03/14 06:13:40;;;;;;;8.77;2.80;;;13.30;87.50;;;13.25;44.77;100267.06;4963013;28;100479;-54
2021/03/14 06:16:07;;;;;;;5.07;2.20;;;13.10;88.20;;;13.52;44.95;100277.13;4952091;28;98652;-56
2021/03/14 06:18:34;;;;;;;8.77;2.93;;;13.30;90.30;;;13.23;44.62;100276.03;4942382;28;103064;-55
2021/03/14 06:21:02;;;;;;;9.97;3.37;;;13.00;88.00;;;13.31;45.39;100284.44;4952713;28;96985;-55
2021/03/14 06:23:28;;;;;;;7.83;2.67;;;13.10;89.10;;;13.33;44.37;100278.13;4950402;28;97611;-54
2021/03/14 06:25:57;;;;;;;9.10;2.63;;;13.20;88.10;;;13.44;45.47;100287.25;4943105;28;97180;-53
2021/03/14 06:28:37;;;;;;;6.30;2.37;;;13.20;90.50;;;13.58;45.11;100287.38;4950117;28;98619;-55
2021/03/14 06:31:22;;;;;;;6.80;2.30;;;13.30;90.30;;;13.25;45.30;100284.75;4942863;28;97326;-56
2021/03/14 06:33:49;;;;;;;6.60;2.83;;;13.00;88.90;;;13.47;45.37;100289.78;4948993;28;102411;-56
2021/03/14 06:36:20;;;;;;;10.87;3.37;;;13.20;90.10;;;13.59;44.30;100307.66;4941176;28;98420;-55
2021/03/14 06:38:48;;;;;;;10.83;3.57;;;13.40;87.70;;;13.58;42.99;100311.25;4968922;28;98312;-52
2021/03/14 06:41:20;;;;;;;8.43;3.40;;;13.60;85.30;;;12.99;42.87;100320.47;4973203;28;99621;-54
2021/03/14 06:43:56;;;;;;;9.83;3.30;;;13.00;85.40;;;12.70;46.07;100314.84;4951323;28;97645;-55
2021/03/14 06:46:30;;;;;;;9.40;3.30;;;12.40;89.10;;;13.07;45.00;100328.91;4926503;28;97613;-52
2021/03/14 06:49:13;;;;;;;6.63;2.53;;;12.80;89.20;;;13.32;45.55;100329.38;4967080;28;97398;-52
2021/03/14 06:51:49;;;;;;;6.77;2.53;;;13.10;90.30;;;13.53;44.83;100332.69;4939006;28;104646;-52
2021/03/14 06:54:27;;;;;;;8.67;3.13;;;13.30;88.80;;;13.30;42.69;100341.81;4948977;28;98715;-52
2021/03/14 06:57:12;;;;;;;8.87;2.87;;;13.20;87.30;;;13.41;45.52;100351.88;4962844;28;100035;-54
2021/03/14 06:59:47;;;;;;;6.40;2.43;;;13.20;90.20;;;13.38;41.99;100352.91;4945943;28;97995;-54
2021/03/14 07:02:21;;;;;;;8.13;2.60;;;13.40;88.20;;;13.08;43.22;100357.09;4925489;28;96947;-52
2021/03/14 07:04:49;;;;;;;8.37;2.87;;;13.00;86.40;;;13.43;45.19;100367.69;4981170;28;100254;-54
2021/03/14 07:07:29;;;;;;;6.47;3.00;;;13.20;90.20;;;13.58;44.36;100362.44;4965123;28;98485;-53
2021/03/14 07:10:04;;;;;;;8.97;3.10;;;13.50;87.30;;;12.92;42.68;100372.88;4954400;28;97046;-55
2021/03/14 07:12:36;;;;;;;11.80;3.37;;;12.90;85.10;;;12.77;44.81;100371.84;4963077;28;105579;-56
2021/03/14 07:15:20;;;;;;;7.77;3.03;;;12.60;86.90;;;12.88;46.44;100373.13;4971892;28;97328;-53
2021/03/14 07:18:00;;;;;;;6.37;2.50;;;12.50;90.60;;;13.05;45.71;100378.44;4929096;28;101749;-52
2021/03/14 07:20:31;;;;;;;7.60;2.57;;;12.70;90.50;;;12.74;43.95;100379.94;4954645;28;98312;-55
2021/03/14 07:23:03;;;;;;;9.03;3.00;;;12.40;90.20;;;12.52;44.63;100381.91;4962756;28;96922;-54
2021/03/14 07:25:31;;;;;;;11.10;3.33;;;12.20;90.20;;;12.14;44.92;100381.91;4953052;28;100615;-54
2021/03/14 07:27:57;;;;;;;12.33;3.33;;;11.80;90.40;;;12.56;46.98;100390.53;4949904;28;97443;-55
2021/03/14 07:30:29;;;;;;;8.33;3.13;;;12.10;91.70;;;12.59;44.14;100388.63;4952738;28;98097;-51
2021/03/14 07:32:55;;;;;;;8.53;3.33;;;12.30;90.10;;;12.41;44.08;100390.34;4928337;28;97010;-54
2021/03/14 07:35:23;;;;;;;11.43;3.30;;;12.20;90.40;;;12.39;46.29;100394.00;4951937;28;97938;-54
2021/03/14 07:37:54;;;;;;;11.33;3.20;;;12.10;90.30;;;12.20;47.33;100405.44;4958473;28;97366;-54
2021/03/14 07:40:26;;;;;;;9.97;3.80;;;11.90;90.70;;;12.52;44.86;100413.66;4969562;28;97681;-54
2021/03/14 07:42:57;;;;;;;5.97;2.73;;;12.20;90.40;;;12.42;44.53;100420.31;4949112;28;98798;-55
2021/03/14 07:45:25;;;;;;;8.20;3.50;;;12.10;90.30;;;12.35;47.38;100416.25;4969920;28;97654;-54
2021/03/14 07:47:52;;;;;;;12.23;3.10;;;11.90;91.20;;;12.39;47.71;100423.09;4947809;28;98814;-55
2021/03/14 07:50:27;;;;;;;9.47;3.03;;;11.90;91.90;;;12.01;45.65;100425.72;4966404;28;100247;-55
2021/03/14 07:53:01;;;;;;;11.23;3.00;;;11.80;90.60;;;11.85;48.95;100429.97;4947062;28;96886;-55
2021/03/14 07:55:26;;;;;;;8.17;2.73;;;11.40;92.10;;;12.55;47.30;100423.22;4962705;28;97679;-54
2021/03/14 07:57:53;;;;;;;7.97;2.80;;;12.10;92.30;;;12.88;45.12;100423.41;4959562;28;98709;-55
2021/03/14 08:00:29;;;;;;;7.13;2.40;;;12.70;90.10;;;12.81;44.19;100439.59;4951711;28;98006;-52
2021/03/14 08:03:01;;;;;;;7.27;3.00;;;12.80;88.10;;;13.19;45.63;100444.84;4947023;28;97303;-51
2021/03/14 08:05:47;;;;;;;9.50;3.87;;;13.00;90.00;;;13.09;45.95;100438.22;4934261;28;97851;-55
2021/03/14 08:08:25;;;;;;;9.80;3.90;;;12.90;90.00;;;13.44;45.23;100446.22;4945147;28;97413;-55
2021/03/14 08:10:53;;;;;;;10.77;3.47;;;13.20;90.70;;;13.36;45.11;100441.34;4953353;28;98124;-54
2021/03/14 08:13:31;;;;;;;8.73;3.10;;;13.20;89.20;;;13.61;45.05;100446.25;4946971;28;103620;-54
2021/03/14 08:16:05;;;;;;;9.07;3.20;;;13.40;89.20;;;13.63;45.16;100449.69;4952545;28;98499;-56
2021/03/14 08:18:50;;;;;;;6.10;2.50;;;13.50;90.00;;;13.92;42.25;100456.13;4961877;28;97757;-53
2021/03/14 08:21:22;;;;;;;5.67;2.53;;;13.90;89.80;;;14.04;44.02;100459.91;4949847;28;98717;-50
2021/03/14 08:23:58;;;;;;;9.20;3.67;;;14.00;88.10;;;14.07;41.70;100465.06;4947916;28;97792;-53
2021/03/14 08:26:29;;;;;;;10.27;3.07;;;14.20;86.40;;;14.15;43.38;100468.13;4967403;28;97395;-52
2021/03/14 08:29:02;;;;;;;7.07;3.00;;;14.10;86.40;;;14.31;41.92;100474.34;4949002;28;97496;-53
2021/03/14 08:31:47;;;;;;;9.83;3.90;;;14.40;85.90;;;14.05;42.78;100478.41;4954196;28;96843;-55
2021/03/14 08:34:27;;;;;;;14.33;4.43;;;14.00;86.90;;;13.99;43.13;100473.41;4945315;28;97783;-54
2021/03/14 08:36:54;;;;;;;10.53;3.70;;;14.00;86.60;;;14.17;43.71;100491.00;4954527;28;100291;-53
2021/03/14 08:39:23;;;;;;;6.90;3.80;;;14.00;87.50;;;14.42;43.40;100487.88;4942741;28;100112;-51
2021/03/14 08:41:56;;;;;;;7.27;3.80;;;14.40;87.50;;;14.46;43.45;100484.16;4958531;28;98239;-54
2021/03/14 08:44:45;;;;;;;7.50;4.03;;;14.50;86.80;;;14.33;43.44;100493.72;4937842;28;104641;-56
2021/03/14 08:47:15;;;;;;;7.10;3.10;;;14.30;85.90;;;14.33;43.50;100496.38;4952667;28;99310;-54
2021/03/14 08:49:47;;;;;;;8.03;3.67;;;14.30;86.70;;;14.48;43.40;100492.06;4947534;28;98164;-52
2021/03/14 08:52:15;;;;;;;6.90;4.10;;;14.40;87.30;;;14.65;42.91;100493.78;4954215;28;98568;-51
2021/03/14 08:54:49;;;;;;;8.77;4.10;;;14.70;85.90;;;14.62;42.37;100501.94;4948911;28;98497;-54
2021/03/14 08:57:18;;;;;;;8.90;4.97;;;14.70;83.70;;;14.49;43.10;100501.72;4952411;28;98465;-54
2021/03/14 08:59:52;;;;;;;13.03;6.40;;;14.50;85.60;;;14.21;43.42;100497.00;4950896;28;98824;-54
2021/03/14 09:02:48;;;;;;;11.03;4.33;;;14.10;86.50;;;14.32;42.08;100507.91;4954987;28;102800;-54
2021/03/14 09:05:21;;;;;;;16.37;7.00;;;14.20;86.40;;;13.83;44.37;100505.16;4934402;28;97251;-51
2021/03/14 09:08:01;;;;;;;7.07;3.53;;;13.70;88.00;;;13.84;44.40;100501.56;4974435;28;100311;-53
2021/03/14 09:10:34;;;;;;;12.80;4.70;;;13.70;87.30;;;13.83;43.99;100505.16;4958937;28;99517;-53
2021/03/14 09:13:02;;;;;;;11.73;5.47;;;13.70;87.00;;;13.85;44.56;100503.28;4970926;28;97537;-53
2021/03/14 09:15:28;;;;;;;14.07;5.77;;;13.70;89.50;;;13.76;43.61;100502.91;4955561;28;100221;-55
2021/03/14 09:17:58;;;;;;;10.43;4.97;;;13.80;87.00;;;13.83;44.62;100509.59;4955584;28;101127;-55
2021/03/14 09:20:24;;;;;;;7.27;4.07;;;13.70;89.20;;;13.78;43.13;100517.81;4954320;28;99891;-55
2021/03/14 09:22:50;;;;;;;8.03;4.13;;;13.80;86.50;;;13.93;44.43;100510.84;4957726;28;103783;-54
2021/03/14 09:25:17;;;;;;;8.47;3.90;;;13.90;87.60;;;13.36;44.96;100526.13;4968779;28;97208;-51
2021/03/14 09:27:47;;;;;;;8.80;4.27;;;13.50;88.40;;;13.38;45.65;100522.44;4973180;28;99319;-53
2021/03/14 09:30:13;;;;;;;6.70;3.27;;;13.30;90.00;;;13.28;44.75;100529.13;4969146;28;99410;-55
2021/03/14 09:32:51;;;;;;;6.27;3.33;;;13.30;89.20;;;13.58;45.81;100532.03;4945878;28;96762;-53
2021/03/14 09:35:21;;;;;;;6.87;3.77;;;13.50;90.50;;;13.40;45.17;100530.31;4937395;28;97445;-52
2021/03/14 09:38:09;;;;;;;5.97;3.30;;;13.50;88.70;;;13.57;45.73;100529.47;4979414;28;99541;-54
2021/03/14 09:40:43;;;;;;;6.93;3.50;;;13.50;89.40;;;13.67;45.53;100542.19;4968482;28;100924;-52
2021/03/14 09:43:14;;;;;;;10.53;4.93;;;13.60;90.00;;;13.57;45.17;100540.94;4939626;28;96810;-56
2021/03/14 09:45:51;;;;;;;8.90;4.20;;;13.70;89.10;;;13.28;46.14;100555.59;4973251;28;96926;-54
2021/03/14 09:48:34;;;;;;;9.73;4.40;;;13.20;90.90;;;13.10;47.28;100559.97;4941421;28;100696;-52
2021/03/14 09:51:09;;;;;;;7.23;4.10;;;12.90;91.60;;;13.19;46.77;100561.38;4955497;28;99335;-56
2021/03/14 09:53:38;;;;;;;10.43;4.87;;;12.90;91.80;;;12.94;47.29;100563.41;4979163;28;100260;-54
2021/03/14 09:56:06;;;;;;;10.77;5.40;;;12.80;91.90;;;12.62;49.22;100571.06;4953020;28;96998;-56
2021/03/14 09:58:33;;;;;;;9.53;5.13;;;12.40;93.30;;;12.73;48.46;100574.09;4947443;28;101732;-56
2021/03/14 10:01:01;;;;;;;8.50;4.80;;;12.40;93.30;;;12.99;47.61;100572.84;4954520;28;97525;-54
2021/03/14 10:03:29;;;;;;;8.90;4.40;;;12.70;92.40;;;12.79;47.46;100583.53;4976535;28;97873;-52
2021/03/14 10:06:06;;;;;;;9.67;4.57;;;12.70;92.10;;;13.04;47.23;100583.25;4952362;28;96993;-54
2021/03/14 10:08:37;;;;;;;4.23;2.70;;;13.00;91.40;;;12.65;46.99;100586.78;4943553;28;97527;-55
2021/03/14 10:11:13;;;;;;;3.83;2.30;;;12.70;91.30;;;12.54;48.63;100589.06;4955280;28;98854;-53
2021/03/14 10:13:46;;;;;;;5.53;2.63;;;12.30;92.70;;;12.76;48.51;100581.03;4944975;28;98398;-53
2021/03/14 10:16:15;;;;;;;4.90;2.40;;;12.50;93.00;;;12.95;47.76;100583.66;4948699;28;97018;-53
2021/03/14 10:18:43;;;;;;;4.70;3.77;;;12.80;91.70;;;12.79;47.42;100600.25;4948221;28;97513;-52
2021/03/14 10:21:25;;;;;;;2.70;1.90;;;12.80;91.40;;;13.08;47.43;100601.56;4968417;28;98173;-56
2021/03/14 10:24:15;;;;;;;2.50;1.73;;;12.90;92.20;;;13.45;46.76;100594.53;4944172;28;97011;-53
2021/03/14 10:27:10;;;;;;;2.17;1.70;;;13.30;91.70;;;13.39;46.30;100598.34;4966022;28;100457;-52